Terminal Aerodrome Forecast
Issued by NWS Cleveland, OH

Home | Current Version | Previous Version | Text Only | Print | Product List | Glossary Off
Versions: 1 2 3 4 5 6 7 8 9 10 11 12 13 14

000
FTUS41 KCLE 221700
TAFTOL
TAF
KTOL 221730Z 2218/2318 23010KT P6SM SCT050
     FM222300 22006KT P6SM BKN200
     FM230700 25008KT P6SM VCSH BKN050 OVC100
     FM231100 31010KT P6SM OVC025=

USA.gov is the U.S. government's official web portal to all federal, state and local government web resources and services.